Bellinger, South Carolina
Current Conditions -  °F | °C
As of 11:53 PM on Tuesday 25 Nov 2014 (Local Time) from KSAV Reporting Station
Light Rain Light Rain  
Wind Chill: 61°   Ceiling: 500
Heat Index: 61°   Visibility: 4mi
Dew Point: 57°   Wind: 9mph
Humidity: 87%   Direction: 350°N
Pressure: 29.88"   Gusts: NA
Location:  32.2576°N, 81.057°W
Report Text: KSAV 260453Z 35008KT 4SM -RA BR OVC005 16/14 A2988 RMK AO2 SLP117 LAST AUGMENTED OBSERVATION UNTIL 1100Z P0005 T01610139 401940156 $
Loading
Personal Weather Stations






























Interactive Weather Map New forecast layout! Learn more

10-Day Weather Forecast

Advertisements
Track Severe Weather on mobile